Time;durP1;ratioP1;P1;durP2;ratioP2;P2;SDS_P1;SDS_P2;PMS_P1;PMS_P2;Temp;Humidity;BMP_temperature;BMP_pressure;BME280_temperature;BME280_humidity;BME280_pressure;Samples;Min_cycle;Max_cycle;Signal;HPM_P1;HPM_P2
2022/10/25 00:02:53;;;;;;;7.60;4.00;;;;;;;12.94;77.52;100000.09;30984764;28;96685;-64
2022/10/25 00:17:54;;;;;;;7.65;3.78;;;;;;;12.83;77.70;99993.41;30981640;28;96723;-64
2022/10/25 00:32:54;;;;;;;6.72;3.67;;;;;;;12.71;77.95;99989.59;30981976;28;97238;-64
2022/10/25 00:48:03;;;;;;;5.15;3.85;;;;;;;12.62;78.05;99996.09;30979946;28;97195;-63
2022/10/25 01:03:05;;;;;;;7.63;3.60;;;;;;;12.41;77.57;99995.03;30979292;28;97856;-64
2022/10/25 01:18:15;;;;;;;6.03;4.10;;;;;;;12.21;77.89;99993.94;30977149;28;97624;-63
2022/10/25 01:33:25;;;;;;;10.87;5.60;;;;;;;11.98;78.26;99987.69;30989200;28;96765;-63
2022/10/25 01:48:31;;;;;;;12.67;6.30;;;;;;;11.67;79.24;99990.47;30997418;28;99664;-64
2022/10/25 02:03:54;;;;;;;6.53;3.87;;;;;;;11.68;79.58;99990.28;30996713;28;97545;-63
2022/10/25 02:19:00;;;;;;;8.83;4.27;;;;;;;11.60;79.33;100002.91;30988254;28;96733;-63
2022/10/25 02:34:01;;;;;;;7.97;4.20;;;;;;;11.37;79.73;99993.09;30990489;28;97055;-63
2022/10/25 02:49:02;;;;;;;8.40;4.85;;;;;;;11.33;80.07;100007.78;30989810;28;96783;-63
2022/10/25 03:04:02;;;;;;;6.22;4.63;;;;;;;11.42;80.31;100014.72;30971857;28;98645;-62
2022/10/25 03:19:03;;;;;;;6.35;3.83;;;;;;;11.59;80.06;100012.75;30986626;28;96808;-63
2022/10/25 03:34:03;;;;;;;9.23;3.92;;;;;;;11.51;79.81;100005.66;30986105;28;97655;-63
2022/10/25 03:49:03;;;;;;;9.32;4.25;;;;;;;11.46;80.42;100005.34;30984246;28;106173;-63
2022/10/25 04:04:04;;;;;;;6.50;4.13;;;;;;;11.31;79.95;100002.66;30983465;28;116599;-63
2022/10/25 04:19:04;;;;;;;9.82;4.43;;;;;;;11.34;79.81;100014.78;30981378;28;96667;-63
2022/10/25 04:34:04;;;;;;;5.72;4.15;;;;;;;11.32;80.12;100022.16;30978203;28;112438;-63
2022/10/25 04:49:06;;;;;;;9.87;5.00;;;;;;;11.35;80.26;100021.78;30850963;28;97365;-63
2022/10/25 05:04:06;;;;;;;8.25;4.38;;;;;;;11.37;80.43;100025.09;30849803;28;97298;-62
2022/10/25 05:19:07;;;;;;;11.43;4.80;;;;;;;11.32;79.97;100035.50;30846948;28;96924;-63
2022/10/25 05:34:09;;;;;;;11.48;5.75;;;;;;;11.42;80.72;100053.91;30845521;28;97128;-65
2022/10/25 05:49:10;;;;;;;7.43;4.90;;;;;;;11.54;80.41;100052.47;30842988;28;96629;-64
2022/10/25 06:04:11;;;;;;;12.33;5.77;;;;;;;11.62;80.37;100070.25;30843166;28;97198;-62
2022/10/25 06:19:12;;;;;;;7.70;5.50;;;;;;;11.74;80.61;100092.84;30851470;28;97482;-62
2022/10/25 06:34:12;;;;;;;8.50;5.57;;;;;;;11.76;80.03;100114.00;30860302;28;97917;-65
2022/10/25 06:49:15;;;;;;;8.27;5.72;;;;;;;12.21;80.39;100127.47;30843398;28;115543;-69
2022/10/25 07:04:16;;;;;;;10.23;4.87;;;;;;;13.86;80.23;100132.31;30838750;28;96960;-62
2022/10/25 07:19:16;;;;;;;5.95;4.22;;;;;;;15.31;76.91;100128.97;30856234;28;96945;-63
2022/10/25 07:34:16;;;;;;;5.45;4.00;;;;;;;15.32;75.69;100146.75;30853670;28;96696;-62
2022/10/25 07:49:17;;;;;;;9.38;5.25;;;;;;;15.65;74.78;100155.88;30855836;28;97221;-62
2022/10/25 08:04:17;;;;;;;10.68;4.30;;;;;;;16.96;73.87;100151.63;30852188;28;118734;-63
2022/10/25 08:19:17;;;;;;;5.45;2.92;;;;;;;17.08;71.45;100157.19;30851273;28;117316;-61
2022/10/25 08:34:18;;;;;;;5.85;3.15;;;;;;;20.10;65.59;100157.59;30851029;28;108543;-64
2022/10/25 08:49:44;;;;;;;7.40;2.72;;;;;;;19.05;64.42;100163.25;30844701;28;112331;-64
2022/10/25 09:04:45;;;;;;;4.77;2.50;;;;;;;21.25;60.89;100170.63;30842143;28;97569;-64
2022/10/25 09:19:51;;;;;;;4.50;2.00;;;;;;;31.84;42.83;100173.06;30844774;28;97979;-65
2022/10/25 09:34:53;;;;;;;6.37;2.30;;;;;;;30.61;36.44;100179.31;30852303;28;97243;-63
2022/10/25 09:50:01;;;;;;;5.07;1.40;;;;;;;25.00;40.12;100185.13;30848876;28;97557;-62
2022/10/25 10:05:02;;;;;;;5.10;1.50;;;;;;;21.69;43.83;100189.06;30841592;28;98078;-61
2022/10/25 10:20:09;;;;;;;4.27;1.17;;;;;;;26.87;39.94;100184.09;30840779;28;98779;-63
2022/10/25 10:35:25;;;;;;;3.77;1.40;;;;;;;32.95;31.09;100178.94;30839142;28;97588;-62
2022/10/25 10:50:30;;;;;;;4.73;1.40;;;;;;;33.88;26.87;100185.97;30838622;28;97286;-63
2022/10/25 11:05:33;;;;;;;1.93;0.93;;;;;;;32.43;24.81;100199.66;30832987;28;97777;-64
2022/10/25 11:21:03;;;;;;;3.23;1.17;;;;;;;30.72;29.01;100189.00;30830615;28;97341;-63
2022/10/25 11:36:31;;;;;;;2.73;1.10;;;;;;;39.44;19.05;100195.59;30827724;28;97751;-66
2022/10/25 11:51:58;;;;;;;3.97;1.57;;;;;;;43.39;15.73;100206.53;30830741;28;97748;-63
2022/10/25 12:07:12;;;;;;;4.67;0.63;;;;;;;42.10;15.75;100201.66;30828672;28;96825;-66
2022/10/25 12:22:20;;;;;;;2.67;1.00;;;;;;;43.52;14.33;100180.97;30826804;28;97567;-62
2022/10/25 12:37:29;;;;;;;4.57;0.80;;;;;;;43.20;13.99;100178.81;30827977;28;97565;-61
2022/10/25 12:52:34;;;;;;;5.17;0.97;;;;;;;36.19;19.08;100192.19;30825014;28;97806;-63
2022/10/25 13:07:36;;;;;;;2.37;0.70;;;;;;;27.88;27.78;100191.19;30823508;28;97583;-60
2022/10/25 13:22:38;;;;;;;2.23;1.00;;;;;;;23.84;33.12;100220.25;30823629;28;98503;-65
2022/10/25 13:37:40;;;;;;;4.90;1.20;;;;;;;21.45;37.99;100211.66;30843788;28;97286;-64
2022/10/25 13:53:10;;;;;;;4.03;1.30;;;;;;;19.85;41.80;100209.97;30843351;28;98010;-62
2022/10/25 14:08:20;;;;;;;4.30;1.93;;;;;;;18.73;44.87;100213.84;30847688;28;98140;-63
2022/10/25 14:23:23;;;;;;;5.80;1.60;;;;;;;17.92;47.53;100241.47;30863746;28;97077;-65
2022/10/25 14:38:26;;;;;;;2.70;1.90;;;;;;;17.99;49.08;100245.97;30857804;28;97466;-65
2022/10/25 14:53:27;;;;;;;3.73;1.40;;;;;;;21.99;45.05;100243.00;30859175;28;97181;-65
2022/10/25 15:08:37;;;;;;;4.73;1.40;;;;;;;23.40;41.06;100267.38;30854188;28;97246;-63
2022/10/25 15:23:40;;;;;;;4.40;1.77;;;;;;;19.84;45.55;100278.59;30859009;28;96891;-63
2022/10/25 15:38:43;;;;;;;8.00;2.23;;;;;;;17.12;51.21;100286.78;30855289;28;97529;-62
2022/10/25 15:53:43;;;;;;;6.60;2.10;;;;;;;15.84;54.47;100292.13;30847122;28;97082;-62
2022/10/25 16:08:44;;;;;;;6.88;2.65;;;;;;;15.14;57.60;100299.41;30853831;28;103364;-63
2022/10/25 16:23:45;;;;;;;6.67;2.97;;;;;;;14.55;59.30;100307.63;30814947;28;96814;-62
2022/10/25 16:38:46;;;;;;;9.15;3.08;;;;;;;14.06;61.63;100327.16;30843139;28;96965;-62
2022/10/25 16:53:47;;;;;;;8.75;3.85;;;;;;;13.66;62.94;100329.41;30842854;28;97453;-64
2022/10/25 17:08:47;;;;;;;9.90;3.37;;;;;;;13.65;64.53;100339.25;30842165;28;97842;-59
2022/10/25 17:23:48;;;;;;;6.88;3.55;;;;;;;13.65;65.48;100341.09;30835415;28;98383;-62
2022/10/25 17:38:49;;;;;;;9.73;3.50;;;;;;;13.88;66.11;100367.75;30844202;28;97425;-61
2022/10/25 17:53:52;;;;;;;4.97;3.03;;;;;;;13.98;66.42;100364.78;30834331;28;97513;-63
2022/10/25 18:08:55;;;;;;;10.10;3.17;;;;;;;13.97;66.50;100371.16;30836656;28;97155;-63
2022/10/25 18:23:57;;;;;;;6.80;4.33;;;;;;;13.69;66.40;100366.50;30737088;28;97664;-62
2022/10/25 18:38:57;;;;;;;8.83;3.33;;;;;;;13.22;66.91;100371.19;30736420;28;97275;-65
2022/10/25 18:54:00;;;;;;;8.65;3.55;;;;;;;12.85;67.69;100380.88;30830228;28;97706;-64
2022/10/25 19:09:01;;;;;;;7.87;4.93;;;;;;;12.44;68.77;100389.19;30853449;28;97267;-63
2022/10/25 19:24:02;;;;;;;8.97;4.77;;;;;;;12.26;69.73;100395.69;30775378;28;97567;-67
2022/10/25 19:39:04;;;;;;;18.98;9.35;;;;;;;12.05;70.77;100404.28;30730710;28;97450;-65
2022/10/25 19:54:06;;;;;;;18.83;10.17;;;;;;;11.87;70.96;100419.72;30757272;28;97399;-63
2022/10/25 20:09:08;;;;;;;6.97;5.27;;;;;;;11.64;71.88;100425.78;30857870;28;96742;-62
2022/10/25 20:24:09;;;;;;;14.53;5.73;;;;;;;11.58;72.66;100423.81;30856300;28;96834;-63
2022/10/25 20:39:13;;;;;;;10.52;5.70;;;;;;;11.28;72.98;100432.38;30856466;28;96690;-63
2022/10/25 20:54:13;;;;;;;10.30;6.07;;;;;;;11.06;73.08;100443.69;30855743;28;97197;-62
2022/10/25 21:09:13;;;;;;;14.50;10.10;;;;;;;10.59;73.90;100453.16;30855109;28;96890;-63
2022/10/25 21:24:14;;;;;;;16.75;11.18;;;;;;;10.37;74.98;100438.66;30852911;28;109728;-61
2022/10/25 21:39:18;;;;;;;17.42;12.05;;;;;;;10.03;75.56;100436.84;30851846;28;97301;-62
2022/10/25 21:54:20;;;;;;;20.63;11.67;;;;;;;9.79;76.06;100435.75;30866999;28;97536;-62
2022/10/25 22:09:21;;;;;;;18.37;11.27;;;;;;;9.71;76.93;100443.69;30872596;28;97831;-62
2022/10/25 22:24:21;;;;;;;20.95;13.52;;;;;;;9.63;77.14;100434.66;30869658;28;96715;-63
2022/10/25 22:39:21;;;;;;;15.85;11.90;;;;;;;9.49;77.54;100440.59;30868754;28;97359;-63
2022/10/25 22:54:22;;;;;;;20.58;12.57;;;;;;;9.22;77.95;100449.53;30866052;28;114184;-63
2022/10/25 23:09:22;;;;;;;20.17;13.52;;;;;;;9.02;78.40;100455.03;30865900;28;108719;-63
2022/10/25 23:24:22;;;;;;;18.70;12.23;;;;;;;8.84;78.56;100456.88;30864959;28;97497;-62
2022/10/25 23:39:23;;;;;;;15.95;11.43;;;;;;;8.76;79.15;100444.34;30862860;28;117136;-63
2022/10/25 23:54:24;;;;;;;17.13;11.57;;;;;;;8.60;79.24;100460.97;30861024;28;96748;-63
